Nearby METAR Reports

KLNK - Lincoln, Nebraska, USA
Distance from station: WNW 8mi, 13km
Updated: Wed, 29-Jan-2020 7:33am CST
Mist, Overcast
Mist, Overcast
 Wind from SE
Wind: SE 3 mph , 6 km/h
Temperature: 28°F , -2°C
Dew Point: 25°F , -4°C
Humidity: 86%
Barometer: 30.15 inHg , 1021 hPa
Summary: Mist
Clouds: Overcast
Visibility: 6 miles , 10 km
Cloud details: Overcast 1400 ft
2020/01/29 13:33 KLNK 291333Z 13003KT 6SM BR OVC014 M02/M04 A3015 RMK AO2 T10221039
KAHQ - Wahoo, Nebraska, USA
Distance from station: N 31mi, 49km
Updated: Wed, 29-Jan-2020 7:35am CST
Mist, Overcast
Mist, Overcast
 Wind from SSE
Wind: SSE 3 mph , 6 km/h
Temperature: 28°F , -2°C
Dew Point: 28°F , -2°C
Humidity: 100%
Barometer: 30.15 inHg , 1021 hPa
Summary: Mist
Clouds: Overcast
Visibility: 3 miles , 5 km
Cloud details: Overcast 900 ft
2020/01/29 13:35 KAHQ 291335Z AUTO 15003KT 3SM BR OVC009 M02/M02 A3015 RMK AO2 T10201020
 
KBIE - Beatrice Municip, Nebraska, USA
Distance from station: S 36mi, 57km
Updated: Wed, 29-Jan-2020 7:35am CST
Mist, Overcast
Mist, Overcast
 Wind from calm
Wind: Calm
Temperature: 28°F , -2°C
Dew Point: 27°F , -3°C
Humidity: 93%
Barometer: 30.15 inHg , 1021 hPa
Summary: Mist
Clouds: Overcast
Visibility: 4 miles , 6 km
Cloud details: Mostly Cloudy 1600 ft
Overcast 2400 ft
2020/01/29 13:35 KBIE 291335Z AUTO 00000KT 4SM BR BKN016 OVC024 M02/M03 A3015 RMK AO2 T10251026
KMLE - Omaha/Millard, Nebraska, USA
Distance from station: NE 39mi, 63km
Updated: Wed, 29-Jan-2020 7:35am CST
Mist, Overcast
Mist, Overcast
 Wind from calm
Wind: Calm
Temperature: 30°F , -1°C
Dew Point: 27°F , -3°C
Humidity: 86%
Barometer: 30.16 inHg , 1021.3 hPa
Summary: Mist
Clouds: Overcast
Visibility: 4 miles , 6 km
Cloud details: Overcast 1900 ft
2020/01/29 13:35 KMLE 291335Z AUTO 00000KT 4SM BR OVC019 M01/M03 A3016 RMK AO2 T10121032
 
KPMV - Plattsmouth Muni, Nebraska, USA
Distance from station: ENE 39mi, 63km
Updated: Wed, 29-Jan-2020 7:35am CST
Mist, Overcast
Mist, Overcast
 Wind from calm
Wind: Calm
Temperature: 27°F , -3°C
Dew Point: 27°F , -3°C
Humidity: 100%
Barometer: 30.16 inHg , 1021.3 hPa
Summary: Mist
Clouds: Overcast
Visibility: 4 miles , 6 km
Cloud details: Overcast 2100 ft
2020/01/29 13:35 KPMV 291335Z AUTO 00000KT 4SM BR OVC021 M03/M03 A3016 RMK AO2 T10281028
KAFK - Nebraska City, Nebraska, USA
Distance from station: ESE 43mi, 69km
Updated: Wed, 29-Jan-2020 7:35am CST
Mist, Overcast
Mist, Overcast
 Wind from calm
Wind: Calm
Temperature: 28°F , -2°C
Dew Point: 28°F , -2°C
Humidity: 100%
Barometer: 30.16 inHg , 1021.3 hPa
Summary: Mist
Clouds: Overcast
Visibility: 2 1/2 miles , 4 km
Cloud details: Mostly Cloudy 300 ft
Overcast 2500 ft
2020/01/29 13:35 KAFK 291335Z AUTO 00000KT 2 1/2SM BR BKN003 OVC025 M02/M02 A3016 RMK AO2 T10251025
 
KOFF - Offutt Afb/Belle, Nebraska, USA
Distance from station: ENE 44mi, 70km
Updated: Wed, 29-Jan-2020 6:56am CST
Mist, Overcast
Mist, Overcast
 Wind from calm
Wind: Calm
Temperature: 27°F , -3°C
Dew Point: 25°F , -4°C
Humidity: 93%
Barometer: 30.16 inHg , 1021.3 hPa
Summary: Mist
Clouds: Overcast
Visibility: 5 miles , 8 km
Cloud details: Overcast 2200 ft
2020/01/29 12:56 KOFF 291256Z 00000KT 5SM BR OVC022 M03/M04 A3016 RMK AO2A SLP232 RVRNO $
KFET - Fremont Muni Arp, Nebraska, USA
Distance from station: N 46mi, 74km
Updated: Wed, 29-Jan-2020 7:35am CST
Mist, Overcast
Mist, Overcast
 Wind from calm
Wind: Calm
Temperature: 28°F , -2°C
Dew Point: 28°F , -2°C
Humidity: 100%
Barometer: 30.15 inHg , 1021 hPa
Summary: Mist
Clouds: Overcast
Visibility: 4 miles , 6 km
Cloud details: Overcast 900 ft
2020/01/29 13:35 KFET 291335Z AUTO 00000KT 4SM BR OVC009 M02/M02 A3015 RMK AO2 T10171025
 
KBTA - Blair Muni, Nebraska, USA
Distance from station: NNE 51mi, 82km
Updated: Wed, 29-Jan-2020 7:35am CST
Mist, Overcast
Mist, Overcast
 Wind from calm
Wind: Calm
Temperature: 27°F , -3°C
Dew Point: 27°F , -3°C
Humidity: 100%
Barometer: 30.14 inHg , 1020.7 hPa
Summary: Mist
Clouds: Overcast
Visibility: 3 miles , 5 km
Cloud details: Overcast 1600 ft
2020/01/29 13:35 KBTA 291335Z AUTO 00000KT 3SM BR OVC016 M03/M03 A3014 RMK AO2 T10271032
KJYR - York, Nebraska, USA
Distance from station: W 52mi, 84km
Updated: Wed, 29-Jan-2020 7:35am CST
Mist, Overcast
Mist, Overcast
 Wind from calm
Wind: Calm
Temperature: 32°F , 0°C
Dew Point: 32°F , 0°C
Humidity: 100%
Barometer: 30.12 inHg , 1020 hPa
Summary: Mist
Clouds: Overcast
Visibility: 3/4 mile , 1.2 km
Cloud details: Overcast 300 ft
2020/01/29 13:35 KJYR 291335Z AUTO 00000KT 3/4SM BR OVC003 00/00 A3012 RMK AO2
 
KOMA - Omaha/Eppley, Nebraska, USA
Distance from station: NE 53mi, 85km
Updated: Wed, 29-Jan-2020 7:22am CST
Mist, Overcast
Mist, Overcast
 Wind from SE
Wind: SE 5 mph , 7 km/h
Temperature: 27°F , -3°C
Wind Chill: 21°F , -6°C
Dew Point: 25°F , -4°C
Humidity: 93%
Barometer: 30.16 inHg , 1021.3 hPa
Summary: Mist
Clouds: Overcast
Visibility: 6 miles , 10 km
Cloud details: Mostly Cloudy 2000 ft
Overcast 3100 ft
2020/01/29 13:22 KOMA 291322Z 13004KT 6SM BR BKN020 OVC031 M03/M04 A3016 RMK AO2 T10281039
KOLU - Columbus Muni, Nebraska, USA
Distance from station: NW 58mi, 93km
Updated: Wed, 29-Jan-2020 7:17am CST
Freezing fog, Overcast
Freezing fog, Overcast
 Wind from calm
Wind: Calm
Temperature: 30°F , -1°C
Dew Point: 28°F , -2°C
Humidity: 93%
Barometer: 30.13 inHg , 1020.3 hPa
Summary: Freezing Fog
Clouds: Overcast
Visibility: 1/2 mile , 0.8 km
Cloud details: Overcast 200 ft
2020/01/29 13:17 KOLU 291317Z AUTO 00000KT 1/2SM FZFG OVC002 M01/M02 A3013 RMK AO2 FZRANO